Date,TemperatureHighF,TemperatureAvgF,TemperatureLowF,DewpointHighF,DewpointAvgF,DewpointLowF,HumidityHigh,HumidityAvg,HumidityLow,PressureMaxIn,PressureMinIn,WindSpeedMaxMPH,WindSpeedAvgMPH,GustSpeedMaxMPH,PrecipitationSumIn
2012-12-1,51.0,48.3,46.0,47.0,44.3,42.0,95,86,79,29.57,29.25,9,2,13,0.75
2012-12-2,51.0,46.3,45.0,46.0,43.3,42.0,93,89,83,29.70,29.13,9,2,9,0.26
2012-12-3,49.0,46.6,45.0,46.0,43.7,43.0,92,89,85,29.95,29.60,6,2,10,0.10
2012-12-4,54.0,48.5,46.0,50.0,44.8,42.0,95,87,71,29.74,29.47,6,3,13,0.30
2012-12-5,49.0,44.7,41.0,42.0,39.5,37.0,87,82,73,30.13,29.74,5,1,7,0.02
2012-12-6,48.0,43.1,41.0,43.0,37.7,-99.9,91,85,83,30.12,29.99,5,1,7,0.10
2012-12-7,46.0,43.0,41.0,44.0,39.4,36.0,92,87,80,30.07,29.88,10,2,15,0.06
2012-12-8,43.0,39.2,36.0,40.0,36.1,33.0,91,89,82,30.31,30.07,2,0,3,0.32
2012-12-9,42.0,38.9,37.0,40.0,36.9,35.0,93,92,91,30.34,30.22,3,0,3,0.20
2012-12-10,44.0,42.2,41.0,42.0,40.2,39.0,94,92,92,30.39,30.05,2,0,5,0.02
2012-12-11,45.0,42.8,42.0,42.0,40.5,39.0,94,91,89,30.05,29.51,9,2,12,0.20
2012-12-12,44.0,42.7,41.0,42.0,40.7,39.0,93,92,91,29.98,29.55,3,0,3,0.38
2012-12-13,43.0,40.8,39.0,40.0,38.2,37.0,93,90,84,29.99,29.75,5,1,8,0.20
2012-12-14,48.0,39.2,34.0,44.0,36.7,32.0,93,91,83,29.89,29.73,8,1,9,0.46
2012-12-15,39.0,36.4,33.0,37.0,33.3,31.0,93,89,77,29.87,29.49,10,3,12,0.12
2012-12-16,42.0,39.3,38.0,40.0,37.0,36.0,94,91,89,29.68,28.93,9,2,12,0.51
2012-12-17,44.0,40.5,36.0,43.0,37.9,33.0,95,90,86,29.82,28.90,10,2,12,0.51
2012-12-18,39.0,36.7,34.0,37.0,33.9,32.0,93,89,86,29.92,29.82,7,2,9,0.10
2012-12-19,39.0,37.3,34.0,37.0,34.7,32.0,95,91,81,29.90,29.54,16,4,17,0.77
2012-12-20,42.0,40.6,37.0,40.0,38.2,34.0,95,92,86,29.78,29.45,11,3,14,0.57
2012-12-21,44.0,37.8,33.0,41.0,34.8,31.0,92,89,87,29.78,29.63,2,0,3,0.02
2012-12-22,45.0,41.3,38.0,43.0,38.1,35.0,93,88,80,29.69,29.44,6,1,8,0.10
2012-12-23,47.0,42.6,40.0,42.0,38.6,37.0,90,86,80,29.77,29.56,9,1,10,0.26
2012-12-24,45.0,41.0,38.0,42.0,38.6,36.0,92,91,88,30.12,29.77,3,0,5,0.26
2012-12-25,42.0,39.5,38.0,38.0,35.8,34.0,92,87,77,30.01,29.60,11,2,17,0.14
2012-12-26,43.0,41.0,39.0,40.0,37.5,35.0,93,88,80,29.86,29.65,9,3,10,0.22
2012-12-27,45.0,42.3,41.0,43.0,40.3,39.0,93,92,91,30.12,29.86,3,0,5,0.26
2012-12-28,46.0,41.9,39.0,41.0,38.9,37.0,92,89,83,30.12,30.05,2,0,3,0.02
2012-12-29,41.0,39.5,38.0,39.0,36.8,34.0,92,89,85,30.18,30.09,1,0,2,0.18
2012-12-30,39.0,36.6,34.0,37.0,34.4,32.0,92,91,89,30.27,30.18,1,0,2,0.02
2012-12-31,41.0,35.4,33.0,37.0,32.8,30.0,92,90,86,30.41,30.20,1,0,1,0.00